createdAt,value
2019-06-01T00:00:38.101Z,0.00
2019-06-01T00:01:38.283Z,0.00
2019-06-01T00:02:38.645Z,0.00
2019-06-01T00:03:38.266Z,0.00
2019-06-01T00:04:38.688Z,0.00
2019-06-01T00:05:38.424Z,0.00
2019-06-01T00:06:38.620Z,0.00
2019-06-01T00:07:38.733Z,0.00
2019-06-01T00:08:40.168Z,0.00
2019-06-01T00:09:38.980Z,0.00
2019-06-01T00:10:38.950Z,0.00
2019-06-01T00:11:39.157Z,0.00
2019-06-01T00:12:39.195Z,0.00
2019-06-01T00:13:39.400Z,0.00
2019-06-01T00:14:37.932Z,0.00
2019-06-01T00:15:37.933Z,0.00
2019-06-01T00:16:37.928Z,0.00
2019-06-01T00:17:37.905Z,0.00
2019-06-01T00:18:37.946Z,0.00
2019-06-01T00:19:37.879Z,0.00
2019-06-01T00:20:37.866Z,0.00
2019-06-01T00:21:37.865Z,0.00
2019-06-01T00:22:37.869Z,0.00
2019-06-01T00:23:37.869Z,0.00
2019-06-01T00:24:37.838Z,0.00
2019-06-01T00:25:37.805Z,0.00
2019-06-01T00:26:37.823Z,0.00
2019-06-01T00:27:37.784Z,0.00
2019-06-01T00:28:37.805Z,0.00
2019-06-01T00:29:37.782Z,0.00
2019-06-01T00:30:37.754Z,0.00
2019-06-01T00:31:37.746Z,0.00
2019-06-01T00:32:37.736Z,0.00
2019-06-01T00:33:37.754Z,0.00
2019-06-01T00:34:37.709Z,0.00
2019-06-01T00:35:37.706Z,0.00
2019-06-01T00:36:37.692Z,0.00
2019-06-01T00:37:37.683Z,0.00
2019-06-01T00:38:37.719Z,0.00
2019-06-01T00:39:37.660Z,0.00
2019-06-01T00:40:37.651Z,0.00
2019-06-01T00:41:37.671Z,0.00
2019-06-01T00:42:37.645Z,0.00
2019-06-01T00:43:37.639Z,0.00
2019-06-01T00:44:37.612Z,0.00
2019-06-01T00:45:37.596Z,0.00
2019-06-01T00:46:37.581Z,0.00
2019-06-01T00:47:37.565Z,0.00
2019-06-01T00:48:37.587Z,0.00
2019-06-01T00:49:37.550Z,0.00
2019-06-01T00:50:37.536Z,0.00
2019-06-01T00:51:37.534Z,0.00
2019-06-01T00:52:37.602Z,0.00
2019-06-01T00:53:37.533Z,0.00
2019-06-01T00:54:37.506Z,0.00
2019-06-01T00:55:37.482Z,0.00
2019-06-01T00:56:37.476Z,0.00
2019-06-01T00:57:37.459Z,0.00
2019-06-01T00:58:37.494Z,0.00
2019-06-01T00:59:37.476Z,0.00
2019-06-01T01:00:43.733Z,0.00
2019-06-01T01:01:38.428Z,0.00
2019-06-01T01:02:37.404Z,0.00
2019-06-01T01:03:37.434Z,0.00
2019-06-01T01:04:37.385Z,0.00
2019-06-01T01:05:37.374Z,0.00
2019-06-01T01:06:37.364Z,0.00
2019-06-01T01:07:38.308Z,0.00
2019-06-01T01:08:37.377Z,0.00
2019-06-01T01:09:37.327Z,0.00
2019-06-01T01:10:37.316Z,0.00
2019-06-01T01:11:37.341Z,0.00
2019-06-01T01:12:37.294Z,0.00
2019-06-01T01:13:37.341Z,0.00
2019-06-01T01:14:37.266Z,0.00
2019-06-01T01:15:37.274Z,0.00
2019-06-01T01:16:37.250Z,0.00
2019-06-01T01:17:37.226Z,0.00
2019-06-01T01:18:37.251Z,0.00
2019-06-01T01:19:37.226Z,0.00
2019-06-01T01:20:37.199Z,0.00
2019-06-01T01:21:37.192Z,0.00
2019-06-01T01:22:37.201Z,0.00
2019-06-01T01:23:37.205Z,0.00
2019-06-01T01:24:37.175Z,0.00
2019-06-01T01:25:37.149Z,0.00
2019-06-01T01:26:37.133Z,0.00
2019-06-01T01:27:37.119Z,0.00
2019-06-01T01:28:37.144Z,0.00
2019-06-01T01:29:37.128Z,0.00
2019-06-01T01:30:37.110Z,0.00
2019-06-01T01:31:37.089Z,0.00
2019-06-01T01:32:37.061Z,0.00
2019-06-01T01:33:37.081Z,0.00
2019-06-01T01:34:37.045Z,0.00
2019-06-01T01:35:37.038Z,0.00
2019-06-01T01:36:37.027Z,0.00
2019-06-01T01:37:37.020Z,0.00
2019-06-01T01:38:37.032Z,0.00
2019-06-01T01:39:37.031Z,0.00
2019-06-01T01:40:36.978Z,0.00
2019-06-01T01:41:36.969Z,0.00
2019-06-01T01:42:36.951Z,0.00
2019-06-01T01:43:36.980Z,0.00
2019-06-01T01:44:36.942Z,0.00
2019-06-01T01:45:36.929Z,0.00
2019-06-01T01:46:36.932Z,0.00
2019-06-01T01:47:36.905Z,0.00
2019-06-01T01:48:36.917Z,0.00
2019-06-01T01:49:36.885Z,0.00
2019-06-01T01:50:36.868Z,0.00
2019-06-01T01:51:36.853Z,0.00
2019-06-01T01:52:36.874Z,0.00
2019-06-01T01:53:36.865Z,0.00
2019-06-01T01:54:36.816Z,0.00
2019-06-01T01:55:36.809Z,0.00
2019-06-01T01:56:36.796Z,0.00
2019-06-01T01:57:36.793Z,0.00
2019-06-01T01:58:36.809Z,0.00
2019-06-01T01:59:36.771Z,0.00
2019-06-01T02:00:36.751Z,0.00
2019-06-01T02:01:36.743Z,0.00
2019-06-01T02:02:36.725Z,0.00
2019-06-01T02:03:36.739Z,0.00
2019-06-01T02:04:36.701Z,0.00
2019-06-01T02:05:36.687Z,0.00
2019-06-01T02:06:36.688Z,0.00
2019-06-01T02:07:36.678Z,0.00
2019-06-01T02:08:36.729Z,0.00
2019-06-01T02:09:36.649Z,0.00
2019-06-01T02:10:36.631Z,0.00
2019-06-01T02:11:36.630Z,0.00
2019-06-01T02:12:36.611Z,0.00
2019-06-01T02:13:36.643Z,0.00
2019-06-01T02:14:36.594Z,0.00
2019-06-01T02:15:36.610Z,0.00
2019-06-01T02:16:36.573Z,0.00
2019-06-01T02:17:36.593Z,0.00
2019-06-01T02:18:36.649Z,0.00
2019-06-01T02:19:36.699Z,0.00
2019-06-01T02:20:36.533Z,0.00
2019-06-01T02:21:36.525Z,0.00
2019-06-01T02:22:36.540Z,0.00
2019-06-01T02:23:36.490Z,0.00
2019-06-01T02:24:36.514Z,0.00
2019-06-01T02:25:36.474Z,0.00
2019-06-01T02:26:36.465Z,0.00
2019-06-01T02:27:36.472Z,0.00
2019-06-01T02:28:36.439Z,0.00
2019-06-01T02:29:36.465Z,0.00
2019-06-01T02:30:36.421Z,0.00
2019-06-01T02:31:42.529Z,0.00
2019-06-01T02:32:37.396Z,0.00
2019-06-01T02:33:36.425Z,0.00
2019-06-01T02:34:36.406Z,0.00
2019-06-01T02:35:36.363Z,0.00
2019-06-01T02:36:36.369Z,0.00
2019-06-01T02:37:36.338Z,0.00
2019-06-01T02:38:36.362Z,0.00
2019-06-01T02:39:36.360Z,0.00
2019-06-01T02:40:36.318Z,0.00
2019-06-01T02:41:36.295Z,0.00
2019-06-01T02:42:36.276Z,0.00
2019-06-01T02:43:36.265Z,0.00
2019-06-01T02:44:36.286Z,0.00
2019-06-01T02:45:36.279Z,0.00
2019-06-01T02:46:36.394Z,0.00
2019-06-01T02:47:36.258Z,0.00
2019-06-01T02:48:36.209Z,0.00
2019-06-01T02:49:36.241Z,0.00
2019-06-01T02:50:36.267Z,0.00
2019-06-01T02:51:36.172Z,0.00
2019-06-01T02:52:36.164Z,0.00
2019-06-01T02:53:36.162Z,0.00
2019-06-01T02:54:36.233Z,0.00
2019-06-01T02:55:36.137Z,0.00
2019-06-01T02:56:36.122Z,0.00
2019-06-01T02:57:36.109Z,0.00
2019-06-01T02:58:36.128Z,0.00
2019-06-01T02:59:36.122Z,0.00
2019-06-01T03:00:36.076Z,0.00
2019-06-01T03:01:36.076Z,0.00
2019-06-01T03:02:36.101Z,0.00
2019-06-01T03:03:36.049Z,0.00
2019-06-01T03:04:36.079Z,0.00
2019-06-01T03:05:36.028Z,0.00
2019-06-01T03:06:36.011Z,5.62
2019-06-01T03:07:36.005Z,5.62
2019-06-01T03:08:35.998Z,5.62
2019-06-01T03:09:36.020Z,5.62
2019-06-01T03:10:35.963Z,5.62
2019-06-01T03:11:36.006Z,5.62
2019-06-01T03:12:35.941Z,11.25
2019-06-01T03:13:35.938Z,11.25
2019-06-01T03:14:35.955Z,11.25
2019-06-01T03:15:35.914Z,11.25
2019-06-01T03:16:35.903Z,11.25
2019-06-01T03:17:35.884Z,11.25
2019-06-01T03:18:35.881Z,16.88
2019-06-01T03:19:35.955Z,16.88
2019-06-01T03:20:35.865Z,16.88
2019-06-01T03:21:35.840Z,16.88
2019-06-01T03:22:35.833Z,16.88
2019-06-01T03:23:35.826Z,22.50
2019-06-01T03:24:35.843Z,22.50
2019-06-01T03:25:35.798Z,22.50
2019-06-01T03:26:35.819Z,28.12
2019-06-01T03:27:35.776Z,28.12
2019-06-01T03:28:35.802Z,28.12
2019-06-01T03:29:35.785Z,33.75
2019-06-01T03:30:35.773Z,33.75
2019-06-01T03:31:35.728Z,39.38
2019-06-01T03:32:37.267Z,39.38
2019-06-01T03:33:35.702Z,39.38
2019-06-01T03:34:35.771Z,45.00
2019-06-01T03:35:35.679Z,45.00
2019-06-01T03:36:35.682Z,50.62
2019-06-01T03:37:35.670Z,50.62
2019-06-01T03:38:35.657Z,50.62
2019-06-01T03:39:35.720Z,56.25
2019-06-01T03:40:35.644Z,56.25
2019-06-01T03:41:35.616Z,61.88
2019-06-01T03:42:35.604Z,61.88
2019-06-01T03:43:35.597Z,61.88
2019-06-01T03:44:35.617Z,67.50
2019-06-01T03:45:35.609Z,67.50
2019-06-01T03:46:35.582Z,73.12
2019-06-01T03:47:35.573Z,78.75
2019-06-01T03:48:35.547Z,84.38
2019-06-01T03:49:35.563Z,90.00
2019-06-01T03:50:35.585Z,90.00
2019-06-01T03:51:35.515Z,95.62
2019-06-01T03:52:35.514Z,95.62
2019-06-01T03:53:35.501Z,95.62
2019-06-01T03:54:35.520Z,95.62
2019-06-01T03:55:35.479Z,101.25
2019-06-01T03:56:35.461Z,101.25
2019-06-01T03:57:35.453Z,101.25
2019-06-01T03:58:35.432Z,106.88
2019-06-01T03:59:35.456Z,112.50
2019-06-01T04:00:35.405Z,112.50
2019-06-01T04:01:35.397Z,118.12
2019-06-01T04:02:35.396Z,118.12
2019-06-01T04:03:35.381Z,123.75
2019-06-01T04:04:35.435Z,129.38
2019-06-01T04:05:35.361Z,129.38
2019-06-01T04:06:35.348Z,129.38
2019-06-01T04:07:38.277Z,135.00
2019-06-01T04:08:35.349Z,140.62
2019-06-01T04:09:35.344Z,146.25
2019-06-01T04:10:35.305Z,151.88
2019-06-01T04:11:35.335Z,157.50
2019-06-01T04:12:35.274Z,163.12
2019-06-01T04:13:35.283Z,163.12
2019-06-01T04:14:36.090Z,168.75
2019-06-01T04:15:35.243Z,174.38
2019-06-01T04:16:35.237Z,185.62
2019-06-01T04:17:35.223Z,191.25
2019-06-01T04:18:35.219Z,191.25
2019-06-01T04:19:35.243Z,191.25
2019-06-01T04:20:35.229Z,191.25
2019-06-01T04:21:35.174Z,196.88
2019-06-01T04:22:35.171Z,202.50
2019-06-01T04:23:36.439Z,213.75
2019-06-01T04:24:35.178Z,225.00
2019-06-01T04:25:35.145Z,247.50
2019-06-01T04:26:35.122Z,236.25
2019-06-01T04:27:35.108Z,219.38
2019-06-01T04:28:35.151Z,213.75
2019-06-01T04:29:35.134Z,213.75
2019-06-01T04:30:35.084Z,213.75
2019-06-01T04:31:35.069Z,202.50
2019-06-01T04:32:48.925Z,191.25
2019-06-01T04:33:36.050Z,191.25
2019-06-01T04:34:35.765Z,191.25
2019-06-01T04:35:35.025Z,196.88
2019-06-01T04:36:35.017Z,196.88
2019-06-01T04:37:35.002Z,185.62
2019-06-01T04:38:34.992Z,174.38
2019-06-01T04:39:35.022Z,168.75
2019-06-01T04:40:34.965Z,185.62
2019-06-01T04:41:35.006Z,219.38
2019-06-01T04:42:34.975Z,236.25
2019-06-01T04:43:34.939Z,213.75
2019-06-01T04:44:34.950Z,225.00
2019-06-01T04:45:34.914Z,264.38
2019-06-01T04:46:34.935Z,281.25
2019-06-01T04:47:34.905Z,320.62
2019-06-01T04:48:34.894Z,326.25
2019-06-01T04:49:34.924Z,354.38
2019-06-01T04:50:34.862Z,382.50
2019-06-01T04:51:34.849Z,399.38
2019-06-01T04:52:34.851Z,348.75
2019-06-01T04:53:34.870Z,365.62
2019-06-01T04:54:34.862Z,326.25
2019-06-01T04:55:34.802Z,399.38
2019-06-01T04:56:34.824Z,405.00
2019-06-01T04:57:35.494Z,388.12
2019-06-01T04:58:34.784Z,399.38
2019-06-01T04:59:37.703Z,450.00
2019-06-01T05:00:34.809Z,472.50
2019-06-01T05:01:34.737Z,472.50
2019-06-01T05:02:34.727Z,483.75
2019-06-01T05:03:34.725Z,511.88
2019-06-01T05:04:34.758Z,556.88
2019-06-01T05:05:34.724Z,590.62
2019-06-01T05:06:34.687Z,590.62
2019-06-01T05:07:34.676Z,585.00
2019-06-01T05:08:34.703Z,585.00
2019-06-01T05:09:34.692Z,601.88
2019-06-01T05:10:34.646Z,630.00
2019-06-01T05:11:34.632Z,630.00
2019-06-01T05:12:34.629Z,646.88
2019-06-01T05:13:34.600Z,675.00
2019-06-01T05:14:34.630Z,675.00
2019-06-01T05:15:34.598Z,658.12
2019-06-01T05:16:34.598Z,708.75
2019-06-01T05:17:34.559Z,736.88
2019-06-01T05:18:34.558Z,742.50
2019-06-01T05:19:34.601Z,714.38
2019-06-01T05:20:34.542Z,630.00
2019-06-01T05:21:34.514Z,585.00
2019-06-01T05:22:34.508Z,545.62
2019-06-01T05:23:34.501Z,568.12
2019-06-01T05:24:34.524Z,511.88
2019-06-01T05:25:34.482Z,461.25
2019-06-01T05:26:34.481Z,427.50
2019-06-01T05:27:34.457Z,416.25
2019-06-01T05:28:34.454Z,433.12
2019-06-01T05:29:34.472Z,472.50
2019-06-01T05:30:34.443Z,489.38
2019-06-01T05:31:34.444Z,500.62
2019-06-01T05:32:34.430Z,495.00
2019-06-01T05:33:37.616Z,523.12
2019-06-01T05:34:34.433Z,579.38
2019-06-01T05:35:34.391Z,748.12
2019-06-01T05:36:34.352Z,770.62
2019-06-01T05:37:34.368Z,877.50
2019-06-01T05:38:34.333Z,697.50
2019-06-01T05:39:34.380Z,646.88
2019-06-01T05:40:34.318Z,652.50
2019-06-01T05:41:34.336Z,669.38
2019-06-01T05:42:34.325Z,894.38
2019-06-01T05:43:34.311Z,894.38
2019-06-01T05:44:34.546Z,911.25
2019-06-01T05:45:34.265Z,855.00
2019-06-01T05:46:34.246Z,759.38
2019-06-01T05:47:34.238Z,978.75
2019-06-01T05:48:34.268Z,922.50
2019-06-01T05:49:34.211Z,973.12
2019-06-01T05:50:34.249Z,1023.75
2019-06-01T05:51:34.186Z,1074.38
2019-06-01T05:52:34.191Z,1074.38
2019-06-01T05:53:34.191Z,1080.00
2019-06-01T05:54:34.160Z,1091.25
2019-06-01T05:55:34.183Z,1113.75
2019-06-01T05:56:34.176Z,1108.12
2019-06-01T05:57:34.175Z,1181.25
2019-06-01T05:58:34.133Z,1175.62
2019-06-01T05:59:34.111Z,1175.62
2019-06-01T06:00:34.125Z,1192.50
2019-06-01T06:01:34.116Z,1175.62
2019-06-01T06:02:34.097Z,1209.38
2019-06-01T06:03:40.491Z,1215.00
2019-06-01T06:04:34.045Z,1276.88
2019-06-01T06:05:34.068Z,1293.75
2019-06-01T06:06:34.028Z,1333.12
2019-06-01T06:07:34.020Z,1327.50
2019-06-01T06:08:34.038Z,1231.88
2019-06-01T06:09:33.991Z,832.50
2019-06-01T06:10:34.050Z,1175.62
2019-06-01T06:11:33.969Z,1231.88
2019-06-01T06:12:33.967Z,1383.75
2019-06-01T06:13:33.967Z,1063.12
2019-06-01T06:14:33.947Z,1366.88
2019-06-01T06:15:33.968Z,1237.50
2019-06-01T06:16:33.958Z,1423.12
2019-06-01T06:17:33.930Z,776.25
2019-06-01T06:18:33.902Z,776.25
2019-06-01T06:19:33.892Z,1468.12
2019-06-01T06:20:33.908Z,933.75
2019-06-01T06:21:33.879Z,1293.75
2019-06-01T06:22:33.861Z,1591.88
2019-06-01T06:23:33.887Z,1440.00
2019-06-01T06:24:33.824Z,1507.50
2019-06-01T06:25:35.749Z,1113.75
2019-06-01T06:26:33.817Z,1580.62
2019-06-01T06:27:33.810Z,1102.50
2019-06-01T06:28:33.836Z,1535.62
2019-06-01T06:29:33.803Z,1355.62
2019-06-01T06:30:33.815Z,1445.62
2019-06-01T06:31:33.756Z,1400.62
2019-06-01T06:32:33.754Z,1389.38
2019-06-01T06:33:36.753Z,1389.38
2019-06-01T06:34:33.760Z,1417.50
2019-06-01T06:35:33.766Z,1456.88
2019-06-01T06:36:33.708Z,1468.12
2019-06-01T06:37:33.695Z,1406.25
2019-06-01T06:38:33.679Z,1451.25
2019-06-01T06:39:33.717Z,1524.38
2019-06-01T06:40:33.696Z,1451.25
2019-06-01T06:41:33.657Z,1490.62
2019-06-01T06:42:33.658Z,1479.38
2019-06-01T06:43:33.635Z,1608.75
2019-06-01T06:44:33.614Z,1659.38
2019-06-01T06:45:33.647Z,1659.38
2019-06-01T06:46:33.605Z,1749.38
2019-06-01T06:47:33.650Z,1665.00
2019-06-01T06:48:33.596Z,1693.12
2019-06-01T06:49:33.566Z,1608.75
2019-06-01T06:50:34.116Z,1569.38
2019-06-01T06:51:33.549Z,1659.38
2019-06-01T06:52:33.527Z,1794.38
2019-06-01T06:53:35.500Z,1805.62
2019-06-01T06:54:33.506Z,1828.12
2019-06-01T06:55:33.534Z,1698.75
2019-06-01T06:56:33.510Z,1783.12
2019-06-01T06:57:33.538Z,1665.00
2019-06-01T06:58:33.482Z,1811.25
2019-06-01T06:59:33.472Z,1743.75
2019-06-01T07:00:33.482Z,1659.38
2019-06-01T07:01:33.435Z,1743.75
2019-06-01T07:02:33.493Z,1715.62
2019-06-01T07:03:33.411Z,1597.50
2019-06-01T07:04:33.473Z,1681.88
2019-06-01T07:05:33.432Z,1670.62
2019-06-01T07:06:33.397Z,1715.62
2019-06-01T07:07:33.418Z,1614.38
2019-06-01T07:08:33.372Z,1620.00
2019-06-01T07:09:33.350Z,1603.12
2019-06-01T07:10:35.155Z,1636.88
2019-06-01T07:11:33.400Z,1743.75
2019-06-01T07:12:33.338Z,1805.62
2019-06-01T07:13:33.331Z,1749.38
2019-06-01T07:14:33.303Z,1755.00
2019-06-01T07:15:33.319Z,1710.00
2019-06-01T07:16:33.361Z,1816.88
2019-06-01T07:17:33.270Z,1906.88
2019-06-01T07:18:33.266Z,1890.00
2019-06-01T07:19:33.291Z,1766.25
2019-06-01T07:20:33.317Z,1867.50
2019-06-01T07:21:33.264Z,1800.00
2019-06-01T07:22:33.293Z,1738.12
2019-06-01T07:23:33.230Z,1828.12
2019-06-01T07:24:33.227Z,1935.00
2019-06-01T07:25:33.222Z,1890.00
2019-06-01T07:26:33.197Z,1833.75
2019-06-01T07:27:33.188Z,1845.00
2019-06-01T07:28:33.158Z,1833.75
2019-06-01T07:29:33.155Z,1929.38
2019-06-01T07:30:49.457Z,2002.50
2019-06-01T07:31:34.140Z,2002.50
2019-06-01T07:32:33.111Z,1861.88
2019-06-01T07:33:33.142Z,1946.25
2019-06-01T07:34:40.270Z,1929.38
2019-06-01T07:35:34.104Z,2109.38
2019-06-01T07:36:33.095Z,2137.50
2019-06-01T07:37:33.138Z,2165.62
2019-06-01T07:38:33.297Z,2210.62
2019-06-01T07:39:33.528Z,2143.12
2019-06-01T07:40:33.109Z,2086.88
2019-06-01T07:41:33.153Z,2058.75
2019-06-01T07:42:33.168Z,2154.38
2019-06-01T07:43:33.293Z,2041.88
2019-06-01T07:44:33.285Z,1935.00
2019-06-01T07:45:35.213Z,1912.50
2019-06-01T07:46:33.216Z,2171.25
2019-06-01T07:47:34.037Z,2109.38
2019-06-01T07:48:33.482Z,1985.62
2019-06-01T07:49:33.024Z,2041.88
2019-06-01T07:50:32.946Z,2143.12
2019-06-01T07:51:32.918Z,2188.12
2019-06-01T07:52:32.928Z,2233.12
2019-06-01T07:53:32.910Z,2216.25
2019-06-01T07:54:32.894Z,2193.75
2019-06-01T07:55:32.944Z,2227.50
2019-06-01T07:56:32.939Z,2351.25
2019-06-01T07:57:32.866Z,2368.12
2019-06-01T07:58:33.022Z,2373.75
2019-06-01T07:59:32.829Z,2295.00
2019-06-01T08:00:33.306Z,2407.50
2019-06-01T08:01:33.000Z,2497.50
2019-06-01T08:02:33.147Z,2385.00
2019-06-01T08:03:34.975Z,1974.38
2019-06-01T08:04:50.618Z,1704.38
2019-06-01T08:05:33.811Z,1816.88
2019-06-01T08:06:32.897Z,1670.62
2019-06-01T08:07:32.745Z,1743.75
2019-06-01T08:08:32.773Z,1693.12
2019-06-01T08:09:32.738Z,2002.50
2019-06-01T08:10:32.734Z,2272.50
2019-06-01T08:11:34.937Z,2328.75
2019-06-01T08:12:32.716Z,2126.25
2019-06-01T08:13:35.353Z,2098.12
2019-06-01T08:14:32.941Z,2036.25
2019-06-01T08:15:32.692Z,2199.38
2019-06-01T08:16:32.735Z,2109.38
2019-06-01T08:17:32.642Z,2356.88
2019-06-01T08:18:32.623Z,2328.75
2019-06-01T08:19:32.615Z,2587.50
2019-06-01T08:20:32.722Z,2542.50
2019-06-01T08:21:32.625Z,2531.25
2019-06-01T08:22:32.593Z,2396.25
2019-06-01T08:23:32.669Z,2143.12
2019-06-01T08:24:32.557Z,2165.62
2019-06-01T08:25:32.855Z,2368.12
2019-06-01T08:26:32.767Z,2463.75
2019-06-01T08:27:32.710Z,2621.25
2019-06-01T08:28:32.787Z,2570.62
2019-06-01T08:29:32.917Z,2475.00
2019-06-01T08:30:32.757Z,2463.75
2019-06-01T08:31:33.709Z,2334.38
2019-06-01T08:32:32.885Z,2458.12
2019-06-01T08:33:34.806Z,2278.12
2019-06-01T08:34:33.129Z,2677.50
2019-06-01T08:35:33.203Z,2632.50
2019-06-01T08:36:33.957Z,2531.25
2019-06-01T08:37:33.588Z,2581.88
2019-06-01T08:38:33.803Z,2480.62
2019-06-01T08:39:34.214Z,2531.25
2019-06-01T08:40:33.522Z,2688.75
2019-06-01T08:41:33.597Z,2846.25
2019-06-01T08:42:33.643Z,2795.62
2019-06-01T08:43:33.821Z,2885.62
2019-06-01T08:44:33.675Z,2790.00
2019-06-01T08:45:36.059Z,2722.50
2019-06-01T08:46:34.004Z,2683.12
2019-06-01T08:47:32.313Z,1276.88
2019-06-01T08:48:32.306Z,2745.00
2019-06-01T08:49:32.623Z,2722.50
2019-06-01T08:50:32.335Z,2615.62
2019-06-01T08:51:32.281Z,2711.25
2019-06-01T08:52:32.342Z,2565.00
2019-06-01T08:53:32.351Z,2902.50
2019-06-01T08:54:32.360Z,2981.25
2019-06-01T08:55:32.377Z,3015.00
2019-06-01T08:56:32.389Z,2941.88
2019-06-01T08:57:32.503Z,2885.62
2019-06-01T08:58:32.534Z,2981.25
2019-06-01T08:59:32.586Z,3015.00
2019-06-01T09:00:32.617Z,2165.62
2019-06-01T09:01:32.777Z,3071.25
2019-06-01T09:02:32.806Z,3054.38
2019-06-01T09:03:32.167Z,3031.88
2019-06-01T09:04:32.810Z,2874.38
2019-06-01T09:05:33.138Z,3110.62
2019-06-01T09:06:33.226Z,2919.38
2019-06-01T09:07:33.172Z,2975.62
2019-06-01T09:08:33.252Z,3048.75
2019-06-01T09:09:33.156Z,3105.00
2019-06-01T09:10:33.283Z,2891.25
2019-06-01T09:11:33.267Z,2947.50
2019-06-01T09:12:33.256Z,3121.88
2019-06-01T09:13:33.245Z,3183.75
2019-06-01T09:14:33.424Z,3105.00
2019-06-01T09:15:33.355Z,3150.00
2019-06-01T09:16:33.478Z,3172.50
2019-06-01T09:17:32.015Z,3127.50
2019-06-01T09:18:31.998Z,3020.62
2019-06-01T09:19:31.984Z,3189.38
2019-06-01T09:20:35.289Z,3150.00
2019-06-01T09:21:33.596Z,3121.88
2019-06-01T09:22:31.967Z,3133.12
2019-06-01T09:23:32.043Z,3211.88
2019-06-01T09:24:32.060Z,3200.62
2019-06-01T09:25:31.976Z,3155.62
2019-06-01T09:26:33.792Z,3279.38
2019-06-01T09:27:32.102Z,3386.25
2019-06-01T09:28:32.145Z,3256.88
2019-06-01T09:29:32.158Z,3116.25
2019-06-01T09:30:32.133Z,3065.62
2019-06-01T09:31:32.367Z,3318.75
2019-06-01T09:32:32.297Z,3301.88
2019-06-01T09:33:32.210Z,3273.75
2019-06-01T09:34:32.428Z,3442.50
2019-06-01T09:35:48.628Z,3290.62
2019-06-01T09:36:34.502Z,3341.25
2019-06-01T09:37:32.538Z,3313.12
2019-06-01T09:38:31.831Z,3465.00
2019-06-01T09:39:33.081Z,3307.50
2019-06-01T09:40:33.409Z,3172.50
2019-06-01T09:41:32.614Z,3223.12
2019-06-01T09:42:33.251Z,3346.88
2019-06-01T09:43:32.775Z,3301.88
2019-06-01T09:44:32.317Z,3273.75
2019-06-01T09:45:33.039Z,3273.75
2019-06-01T09:46:32.606Z,3386.25
2019-06-01T09:47:31.753Z,3341.25
2019-06-01T09:48:31.719Z,3183.75
2019-06-01T09:49:32.631Z,3296.25
2019-06-01T09:50:31.678Z,3538.12
2019-06-01T09:51:31.713Z,3487.50
2019-06-01T09:52:31.662Z,3301.88
2019-06-01T09:53:32.545Z,3262.50
2019-06-01T09:54:33.059Z,3358.12
2019-06-01T09:55:32.663Z,3391.88
2019-06-01T09:56:35.090Z,3403.12
2019-06-01T09:57:32.003Z,3414.38
2019-06-01T09:58:32.197Z,3425.62
2019-06-01T09:59:31.975Z,3425.62
2019-06-01T10:00:32.385Z,3318.75
2019-06-01T10:01:32.370Z,3403.12
2019-06-01T10:02:32.072Z,3498.75
2019-06-01T10:03:32.426Z,3538.12
2019-06-01T10:04:32.299Z,3498.75
2019-06-01T10:05:32.418Z,3498.75
2019-06-01T10:06:32.529Z,3504.38
2019-06-01T10:07:32.727Z,3493.12
2019-06-01T10:08:32.606Z,3487.50
2019-06-01T10:09:31.587Z,3448.12
2019-06-01T10:10:31.935Z,3425.62
2019-06-01T10:11:32.489Z,3448.12
2019-06-01T10:12:31.852Z,3481.88
2019-06-01T10:13:32.948Z,3549.38
2019-06-01T10:14:32.127Z,3577.50
2019-06-01T10:15:32.488Z,3611.25
2019-06-01T10:16:32.694Z,3571.88
2019-06-01T10:17:33.206Z,3543.75
2019-06-01T10:18:32.602Z,3577.50
2019-06-01T10:19:32.503Z,3515.62
2019-06-01T10:20:33.079Z,3510.00
2019-06-01T10:21:32.033Z,3493.12
2019-06-01T10:22:31.368Z,3571.88
2019-06-01T10:23:32.379Z,3515.62
2019-06-01T10:24:31.344Z,3453.75
2019-06-01T10:25:32.441Z,3403.12
2019-06-01T10:26:34.026Z,3436.88
2019-06-01T10:27:32.449Z,3594.38
2019-06-01T10:28:31.581Z,3594.38
2019-06-01T10:29:32.524Z,3560.62
2019-06-01T10:30:31.659Z,3532.50
2019-06-01T10:31:32.567Z,3673.12
2019-06-01T10:32:32.469Z,3521.25
2019-06-01T10:33:32.306Z,3375.00
2019-06-01T10:34:31.535Z,3481.88
2019-06-01T10:35:31.234Z,3549.38
2019-06-01T10:36:31.927Z,3690.00
2019-06-01T10:37:31.397Z,3706.88
2019-06-01T10:38:31.209Z,3571.88
2019-06-01T10:39:31.297Z,3476.25
2019-06-01T10:40:31.321Z,3352.50
2019-06-01T10:41:31.307Z,3060.00
2019-06-01T10:42:32.743Z,3105.00
2019-06-01T10:43:31.463Z,3105.00
2019-06-01T10:44:31.599Z,3369.38
2019-06-01T10:45:31.746Z,3566.25
2019-06-01T10:46:31.815Z,3656.25
2019-06-01T10:47:31.750Z,3605.62
2019-06-01T10:48:32.849Z,3577.50
2019-06-01T10:49:31.823Z,3639.38
2019-06-01T10:50:32.943Z,3740.62
2019-06-01T10:51:32.076Z,3847.50
2019-06-01T10:52:31.992Z,3791.25
2019-06-01T10:53:32.064Z,3645.00
2019-06-01T10:54:32.776Z,3695.62
2019-06-01T10:55:31.994Z,3909.38
2019-06-01T10:56:32.310Z,4005.00
2019-06-01T10:57:32.249Z,3960.00
2019-06-01T10:58:32.156Z,3549.38
2019-06-01T10:59:32.146Z,3538.12
2019-06-01T11:00:39.946Z,3690.00
2019-06-01T11:01:34.132Z,3847.50
2019-06-01T11:02:32.442Z,3796.88
2019-06-01T11:03:31.003Z,3600.00
2019-06-01T11:04:30.974Z,3487.50
2019-06-01T11:05:30.948Z,3487.50
2019-06-01T11:06:37.747Z,3611.25
2019-06-01T11:07:32.744Z,3645.00
2019-06-01T11:08:30.917Z,3538.12
2019-06-01T11:09:30.920Z,3510.00
2019-06-01T11:10:30.897Z,3493.12
2019-06-01T11:11:30.940Z,3656.25
2019-06-01T11:12:30.933Z,3909.38
2019-06-01T11:13:30.875Z,3751.88
2019-06-01T11:14:30.877Z,3616.88
2019-06-01T11:15:30.918Z,3605.62
2019-06-01T11:16:30.910Z,3853.12
2019-06-01T11:17:30.846Z,4055.62
2019-06-01T11:18:30.829Z,3915.00
2019-06-01T11:19:30.812Z,3729.38
2019-06-01T11:20:30.871Z,3555.00
2019-06-01T11:21:30.831Z,3667.50
2019-06-01T11:22:30.780Z,3768.75
2019-06-01T11:23:30.793Z,3965.62
2019-06-01T11:24:30.801Z,3870.00
2019-06-01T11:25:30.817Z,3605.62
2019-06-01T11:26:30.782Z,3560.62
2019-06-01T11:27:30.740Z,3498.75
2019-06-01T11:28:30.922Z,3555.00
2019-06-01T11:29:30.760Z,3549.38
2019-06-01T11:30:30.717Z,3538.12
2019-06-01T11:31:30.741Z,3363.75
2019-06-01T11:32:30.795Z,3549.38
2019-06-01T11:33:30.675Z,3639.38
2019-06-01T11:34:30.712Z,3796.88
2019-06-01T11:35:30.713Z,3735.00
2019-06-01T11:36:30.686Z,3481.88
2019-06-01T11:37:31.684Z,3493.12
2019-06-01T11:38:30.626Z,3555.00
2019-06-01T11:39:30.647Z,3650.62
2019-06-01T11:40:30.622Z,3819.38
2019-06-01T11:41:30.644Z,3813.75
2019-06-01T11:42:30.593Z,3931.88
2019-06-01T11:43:30.610Z,3723.75
2019-06-01T11:44:30.575Z,3751.88
2019-06-01T11:45:30.556Z,3785.62
2019-06-01T11:46:30.576Z,3937.50
2019-06-01T11:47:30.535Z,3982.50
2019-06-01T11:48:30.525Z,3825.00
2019-06-01T11:49:30.522Z,3847.50
2019-06-01T11:50:30.507Z,3751.88
2019-06-01T11:51:30.532Z,3886.88
2019-06-01T11:52:30.486Z,3931.88
2019-06-01T11:53:30.483Z,3920.62
2019-06-01T11:54:30.498Z,3841.88
2019-06-01T11:55:30.470Z,3678.75
2019-06-01T11:56:30.494Z,3701.25
2019-06-01T11:57:30.458Z,3791.25
2019-06-01T11:58:30.435Z,3847.50
2019-06-01T11:59:30.479Z,3628.12
2019-06-01T12:00:30.415Z,3420.00
2019-06-01T12:01:30.441Z,3425.62
2019-06-01T12:02:30.401Z,3661.88
2019-06-01T12:03:30.410Z,3785.62
2019-06-01T12:04:30.445Z,3971.25
2019-06-01T12:05:30.367Z,3836.25
2019-06-01T12:06:30.399Z,3695.62
2019-06-01T12:07:30.404Z,3498.75
2019-06-01T12:08:33.984Z,3487.50
2019-06-01T12:09:30.339Z,3780.00
2019-06-01T12:10:30.326Z,3960.00
2019-06-01T12:11:30.354Z,3926.25
2019-06-01T12:12:30.305Z,3802.50
2019-06-01T12:13:30.305Z,3723.75
2019-06-01T12:14:30.276Z,3706.88
2019-06-01T12:15:30.283Z,3853.12
2019-06-01T12:16:30.316Z,3892.50
2019-06-01T12:17:30.286Z,3926.25
2019-06-01T12:18:30.295Z,3836.25
2019-06-01T12:19:30.237Z,3763.12
2019-06-01T12:20:30.230Z,3667.50
2019-06-01T12:21:30.256Z,3763.12
2019-06-01T12:22:30.222Z,3796.88
2019-06-01T12:23:30.198Z,3791.25
2019-06-01T12:24:30.184Z,3718.12
2019-06-01T12:25:30.173Z,3605.62
2019-06-01T12:26:30.242Z,3436.88
2019-06-01T12:27:30.161Z,3538.12
2019-06-01T12:28:30.178Z,3695.62
2019-06-01T12:29:30.166Z,3639.38